Time;durP1;ratioP1;P1;durP2;ratioP2;P2;SDS_P1;SDS_P2;PMS_P1;PMS_P2;Temp;Humidity;BMP_temperature;BMP_pressure;BME280_temperature;BME280_humidity;BME280_pressure;Samples;Min_cycle;Max_cycle;Signal;HPM_P1;HPM_P2
2023/08/15 00:02:15;;;;;;;10.40;1.05;;;;;;;14.95;100.00;100196.31;5023377;28;20045;-82
2023/08/15 00:04:40;;;;;;;2.45;1.00;;;;;;;14.92;100.00;100199.34;5039850;28;20068;-83
2023/08/15 00:07:06;;;;;;;4.10;0.85;;;;;;;14.88;100.00;100201.50;5020838;28;20091;-82
2023/08/15 00:09:32;;;;;;;5.93;1.10;;;;;;;14.88;100.00;100206.00;5015779;28;20516;-83
2023/08/15 00:11:59;;;;;;;2.72;0.90;;;;;;;14.85;100.00;100209.00;5021270;28;20481;-83
2023/08/15 00:14:25;;;;;;;3.92;1.20;;;;;;;14.85;100.00;100209.00;5013519;28;20088;-83
2023/08/15 00:16:51;;;;;;;3.17;1.08;;;;;;;14.84;100.00;100207.38;5011217;28;20411;-82
2023/08/15 00:19:17;;;;;;;2.40;1.00;;;;;;;14.82;100.00;100212.03;5029530;28;20072;-83
2023/08/15 00:21:43;;;;;;;4.32;1.15;;;;;;;14.80;100.00;100214.88;5013562;28;20045;-83
2023/08/15 00:24:09;;;;;;;4.70;0.90;;;;;;;14.80;100.00;100217.53;5015519;28;20037;-83
2023/08/15 00:26:35;;;;;;;5.32;1.33;;;;;;;14.80;100.00;100220.19;5031393;28;20053;-83
2023/08/15 00:29:01;;;;;;;5.03;1.35;;;;;;;14.82;100.00;100223.50;5023724;28;20030;-83
2023/08/15 00:31:27;;;;;;;2.42;0.95;;;;;;;14.88;100.00;100220.13;5014736;28;20137;-83
2023/08/15 00:33:53;;;;;;;2.22;0.80;;;;;;;14.90;100.00;100221.78;4997941;28;20037;-83
2023/08/15 00:36:20;;;;;;;3.35;1.05;;;;;;;14.93;100.00;100219.59;5024446;28;20040;-83
2023/08/15 00:38:45;;;;;;;2.72;1.00;;;;;;;14.95;100.00;100222.09;5031984;28;20029;-83
2023/08/15 00:41:11;;;;;;;3.25;1.00;;;;;;;14.99;100.00;100232.19;5015051;28;20026;-83
2023/08/15 00:43:37;;;;;;;3.55;1.05;;;;;;;15.00;100.00;100223.19;5028730;28;20057;-83
2023/08/15 00:46:06;;;;;;;1.33;0.93;;;;;;;15.06;100.00;100229.66;5011593;28;20519;-83
2023/08/15 00:48:33;;;;;;;4.22;0.90;;;;;;;15.07;100.00;100230.44;5019788;28;20112;-82
2023/08/15 00:51:00;;;;;;;3.85;1.08;;;;;;;15.08;100.00;100226.81;5015698;28;20038;-82
2023/08/15 00:53:33;;;;;;;2.75;0.80;;;;;;;15.09;100.00;100233.78;5026143;28;20029;-82
2023/08/15 00:55:59;;;;;;;5.00;1.08;;;;;;;15.06;100.00;100231.47;5029750;28;20041;-83
2023/08/15 00:58:28;;;;;;;5.90;0.88;;;;;;;15.07;100.00;100241.09;5014635;28;20052;-82
2023/08/15 01:00:54;;;;;;;2.55;0.80;;;;;;;15.07;100.00;100235.78;5030931;28;20656;-82
2023/08/15 01:03:20;;;;;;;14.68;1.98;;;;;;;15.06;100.00;100244.78;5030671;28;20029;-83
2023/08/15 01:05:47;;;;;;;3.90;0.70;;;;;;;15.06;100.00;100247.44;5001990;28;20091;-83
2023/08/15 01:08:13;;;;;;;2.42;0.85;;;;;;;15.05;100.00;100248.47;5002944;28;20026;-83
2023/08/15 01:10:40;;;;;;;4.13;1.23;;;;;;;15.06;100.00;100245.63;5023678;28;20084;-82
2023/08/15 01:13:12;;;;;;;5.78;1.30;;;;;;;15.05;100.00;100241.28;5003902;28;20040;-83
2023/08/15 01:15:43;;;;;;;3.55;1.10;;;;;;;15.06;100.00;100250.09;5012785;28;20050;-83
2023/08/15 01:18:13;;;;;;;5.28;1.75;;;;;;;15.04;100.00;100250.28;5033000;28;20045;-82
2023/08/15 01:20:39;;;;;;;2.58;0.95;;;;;;;15.01;100.00;100247.97;5019570;28;20183;-83
2023/08/15 01:23:07;;;;;;;3.63;1.15;;;;;;;15.02;100.00;100254.94;5013347;28;20049;-83
2023/08/15 01:25:41;;;;;;;1.75;1.08;;;;;;;15.03;100.00;100250.47;5044864;28;20041;-83
2023/08/15 01:28:12;;;;;;;3.53;0.90;;;;;;;15.01;100.00;100250.66;4999852;28;20041;-83
2023/08/15 01:30:48;;;;;;;2.30;1.05;;;;;;;15.02;100.00;100246.16;5007874;28;20511;-83
2023/08/15 01:34:08;;;;;;;2.92;1.02;;;;;;;15.00;100.00;100256.97;5022840;28;20033;-83
2023/08/15 01:36:45;;;;;;;4.53;1.00;;;;;;;14.99;100.00;100250.81;4953622;28;20039;-82
2023/08/15 01:39:13;;;;;;;2.10;1.15;;;;;;;15.01;100.00;100258.63;5031948;28;20072;-83
2023/08/15 01:41:40;;;;;;;3.55;1.10;;;;;;;15.03;100.00;100261.94;5012793;28;20038;-82
2023/08/15 01:44:11;;;;;;;5.55;1.60;;;;;;;15.08;100.00;100262.22;5027577;28;20071;-83
2023/08/15 01:46:38;;;;;;;3.65;1.25;;;;;;;15.02;100.00;100262.13;5017749;28;20104;-82
2023/08/15 01:49:04;;;;;;;3.75;1.35;;;;;;;15.04;100.00;100252.94;5016539;28;20439;-83
2023/08/15 01:51:30;;;;;;;6.28;1.75;;;;;;;15.05;100.00;100259.09;5030651;28;20033;-83
2023/08/15 01:53:56;;;;;;;2.55;0.90;;;;;;;14.97;100.00;100260.81;5013107;28;20033;-83
2023/08/15 01:56:21;;;;;;;8.70;1.00;;;;;;;14.96;100.00;100263.66;5023550;28;20038;-83
2023/08/15 01:58:47;;;;;;;2.80;1.00;;;;;;;14.96;100.00;100259.16;5020739;28;20087;-83
2023/08/15 02:01:14;;;;;;;5.43;1.48;;;;;;;14.94;100.00;100257.69;4979028;28;20041;-83
2023/08/15 02:03:40;;;;;;;4.80;1.08;;;;;;;14.93;100.00;100256.84;5018741;28;20041;-83
2023/08/15 02:06:06;;;;;;;2.92;0.93;;;;;;;14.91;100.00;100258.06;5011873;28;20033;-83
2023/08/15 02:08:31;;;;;;;5.70;1.02;;;;;;;14.88;100.00;100256.56;5028353;28;20479;-83
2023/08/15 02:11:00;;;;;;;5.97;1.23;;;;;;;14.88;100.00;100251.22;5028397;28;20034;-83
2023/08/15 02:13:30;;;;;;;5.32;1.73;;;;;;;14.86;100.00;100259.41;5011099;28;20026;-83
2023/08/15 02:15:56;;;;;;;9.75;1.00;;;;;;;14.83;100.00;100257.09;5007017;28;20048;-83
2023/08/15 02:18:27;;;;;;;4.07;1.02;;;;;;;14.83;100.00;100265.06;4941205;28;20050;-83
2023/08/15 02:20:53;;;;;;;6.00;0.98;;;;;;;14.75;100.00;100257.09;5028485;28;20036;-83
2023/08/15 02:23:19;;;;;;;5.20;0.90;;;;;;;14.70;100.00;100262.97;5013000;28;20128;-82
2023/08/15 02:25:45;;;;;;;4.05;0.93;;;;;;;14.66;100.00;100264.31;5002611;28;20033;-83
2023/08/15 02:28:11;;;;;;;3.03;1.10;;;;;;;14.62;100.00;100263.84;5011879;28;20059;-83
2023/08/15 02:30:37;;;;;;;6.57;0.88;;;;;;;14.62;100.00;100261.19;5025642;28;20050;-83
2023/08/15 02:33:07;;;;;;;4.65;1.00;;;;;;;14.63;100.00;100262.03;5010514;28;20391;-83
2023/08/15 02:35:33;;;;;;;2.85;0.80;;;;;;;14.59;100.00;100266.84;5025908;28;20057;-83
2023/08/15 02:38:00;;;;;;;4.90;0.90;;;;;;;14.53;100.00;100267.56;5023423;28;20049;-83
2023/08/15 02:40:28;;;;;;;2.58;0.90;;;;;;;14.54;100.00;100268.41;4993723;28;20577;-82
2023/08/15 02:42:54;;;;;;;3.42;0.80;;;;;;;14.50;100.00;100275.88;5029710;28;20033;-83
2023/08/15 02:45:20;;;;;;;7.82;1.10;;;;;;;14.45;100.00;100281.72;5027012;28;20077;-82
2023/08/15 02:47:46;;;;;;;4.32;1.00;;;;;;;14.46;100.00;100286.03;5012054;28;20044;-82
2023/08/15 02:50:14;;;;;;;7.55;0.95;;;;;;;14.42;100.00;100291.88;5010111;28;20554;-83
2023/08/15 02:52:40;;;;;;;6.18;1.10;;;;;;;14.41;100.00;100295.53;5029491;28;20083;-83
2023/08/15 02:55:07;;;;;;;7.00;1.10;;;;;;;14.35;100.00;100291.75;5001541;28;20037;-83
2023/08/15 02:57:33;;;;;;;2.92;1.02;;;;;;;14.31;100.00;100291.28;5028611;28;20099;-83
2023/08/15 02:59:59;;;;;;;12.80;1.33;;;;;;;14.30;100.00;100297.56;5011072;28;20029;-83
2023/08/15 03:02:26;;;;;;;2.20;0.80;;;;;;;14.33;100.00;100293.75;5002239;28;20034;-82
2023/08/15 03:04:52;;;;;;;5.72;0.90;;;;;;;14.35;100.00;100294.41;5012939;28;20033;-82
2023/08/15 03:07:18;;;;;;;2.78;1.00;;;;;;;14.37;100.00;100297.72;5012691;28;20499;-82
2023/08/15 03:09:44;;;;;;;3.17;1.02;;;;;;;14.38;100.00;100294.06;5028155;28;20456;-82
2023/08/15 03:12:09;;;;;;;3.97;1.50;;;;;;;14.43;100.00;100301.53;5019893;28;20038;-82
2023/08/15 03:14:35;;;;;;;4.78;0.90;;;;;;;14.40;100.00;100297.38;5009204;28;20108;-83
2023/08/15 03:17:03;;;;;;;2.65;0.88;;;;;;;14.43;100.00;100301.53;5011330;28;20053;-83
2023/08/15 03:19:29;;;;;;;2.55;0.90;;;;;;;14.43;100.00;100299.69;5023661;28;20056;-83
2023/08/15 03:21:55;;;;;;;6.72;1.25;;;;;;;14.44;100.00;100300.50;5006928;28;20034;-82
2023/08/15 03:24:22;;;;;;;4.55;0.95;;;;;;;14.47;100.00;100308.16;5009655;28;20087;-83
2023/08/15 03:26:48;;;;;;;3.97;1.00;;;;;;;14.44;100.00;100305.84;5012638;28;20427;-82
2023/08/15 03:29:14;;;;;;;3.03;0.77;;;;;;;14.47;100.00;100316.13;5004825;28;20084;-83
2023/08/15 03:31:40;;;;;;;2.33;0.82;;;;;;;14.45;100.00;100310.97;4987813;28;20160;-83
2023/08/15 03:34:06;;;;;;;3.55;0.90;;;;;;;14.46;100.00;100312.63;5036986;28;20037;-83
2023/08/15 03:36:31;;;;;;;3.67;1.08;;;;;;;14.39;100.00;100311.69;5011385;28;20045;-82
2023/08/15 03:38:57;;;;;;;4.20;1.00;;;;;;;14.37;100.00;100306.53;5028028;28;20033;-82
2023/08/15 03:41:23;;;;;;;3.03;0.90;;;;;;;14.34;100.00;100298.06;5017403;28;20025;-83
2023/08/15 03:43:49;;;;;;;4.72;1.33;;;;;;;14.31;100.00;100299.25;5027804;28;20388;-83
2023/08/15 03:46:15;;;;;;;4.05;0.70;;;;;;;14.29;100.00;100303.06;5000625;28;20030;-83
2023/08/15 03:48:41;;;;;;;4.78;1.15;;;;;;;14.26;100.00;100304.25;5001991;28;20077;-83
2023/08/15 03:51:07;;;;;;;3.10;1.08;;;;;;;14.24;100.00;100319.53;5008678;28;20030;-83
2023/08/15 03:53:33;;;;;;;4.82;0.93;;;;;;;14.20;100.00;100308.44;5012884;28;20128;-83
2023/08/15 03:56:00;;;;;;;4.93;1.05;;;;;;;14.14;100.00;100303.81;5000806;28;20044;-82
2023/08/15 03:58:26;;;;;;;3.85;1.02;;;;;;;14.09;100.00;100306.97;5025852;28;20029;-83
2023/08/15 04:00:52;;;;;;;3.67;1.00;;;;;;;14.04;100.00;100303.16;5012266;28;20052;-82
2023/08/15 04:03:18;;;;;;;6.25;1.13;;;;;;;14.00;100.00;100297.34;5003934;28;20044;-83
2023/08/15 04:05:46;;;;;;;6.90;0.80;;;;;;;13.98;100.00;100297.50;4990554;28;20045;-83
2023/08/15 04:08:15;;;;;;;5.72;1.20;;;;;;;13.94;100.00;100295.38;4992687;28;20483;-83
2023/08/15 04:10:43;;;;;;;2.30;0.80;;;;;;;13.90;100.00;100308.19;5023693;28;20113;-83
2023/08/15 04:13:09;;;;;;;4.40;1.23;;;;;;;13.93;100.00;100307.84;5026761;28;20042;-82
2023/08/15 04:15:36;;;;;;;3.13;1.35;;;;;;;13.91;100.00;100309.84;5009051;28;20029;-82
2023/08/15 04:18:05;;;;;;;4.03;0.85;;;;;;;13.77;100.00;100309.53;5010317;28;20095;-82
2023/08/15 04:20:31;;;;;;;6.90;0.93;;;;;;;13.57;100.00;100303.75;5021363;28;20065;-83
2023/08/15 04:22:57;;;;;;;4.75;0.93;;;;;;;13.51;100.00;100304.41;5026385;28;20440;-82
2023/08/15 04:25:25;;;;;;;3.50;1.10;;;;;;;13.52;100.00;100306.91;5027940;28;20044;-82
2023/08/15 04:27:51;;;;;;;5.97;0.80;;;;;;;13.58;100.00;100309.88;5043029;28;20442;-82
2023/08/15 04:30:18;;;;;;;5.15;0.88;;;;;;;13.61;100.00;100314.88;5013738;28;20119;-82
2023/08/15 04:32:47;;;;;;;2.60;0.77;;;;;;;13.67;100.00;100300.06;5007126;28;20052;-82
2023/08/15 04:35:14;;;;;;;5.13;1.08;;;;;;;13.69;100.00;100316.69;4994377;28;20111;-82
2023/08/15 04:37:40;;;;;;;7.72;1.00;;;;;;;13.69;100.00;100312.22;4993251;28;20060;-82
2023/08/15 04:40:12;;;;;;;6.25;1.23;;;;;;;13.73;100.00;100312.69;5009691;28;20037;-81
2023/08/15 04:42:40;;;;;;;4.00;0.93;;;;;;;13.70;100.00;100318.31;5023207;28;20116;-81
2023/08/15 04:45:07;;;;;;;3.95;0.80;;;;;;;13.64;100.00;100326.00;5012128;28;20034;-82
2023/08/15 04:47:34;;;;;;;2.60;0.80;;;;;;;13.57;100.00;100322.31;4993913;28;20033;-82
2023/08/15 04:50:01;;;;;;;5.25;0.60;;;;;;;13.55;100.00;100326.16;5009285;28;20026;-82
2023/08/15 04:52:27;;;;;;;3.47;1.05;;;;;;;13.51;100.00;100334.47;5016379;28;20053;-82
2023/08/15 04:54:53;;;;;;;5.55;0.70;;;;;;;13.45;100.00;100334.25;5027210;28;20411;-82
2023/08/15 04:57:19;;;;;;;2.25;0.75;;;;;;;13.39;100.00;100331.25;5025041;28;20037;-82
2023/08/15 04:59:44;;;;;;;5.53;0.90;;;;;;;13.43;100.00;100333.59;5028115;28;20030;-83
2023/08/15 05:02:10;;;;;;;4.32;1.00;;;;;;;13.47;100.00;100337.59;5005193;28;20037;-82
2023/08/15 05:04:36;;;;;;;2.30;0.80;;;;;;;13.54;100.00;100343.09;5045744;28;20042;-82
2023/08/15 05:07:02;;;;;;;1.45;0.73;;;;;;;13.56;100.00;100339.25;5014921;28;20034;-82
2023/08/15 05:09:31;;;;;;;3.30;0.70;;;;;;;13.65;100.00;100345.38;5028600;28;20488;-82
2023/08/15 05:11:57;;;;;;;4.28;0.90;;;;;;;13.68;100.00;100346.91;5025885;28;20026;-82
2023/08/15 05:14:23;;;;;;;3.80;0.60;;;;;;;13.74;100.00;100347.03;5014788;28;20116;-82
2023/08/15 05:16:50;;;;;;;3.17;0.70;;;;;;;13.79;100.00;100349.22;5030938;28;20395;-82
2023/08/15 05:19:16;;;;;;;1.77;0.70;;;;;;;13.85;100.00;100359.19;5029148;28;20049;-83
2023/08/15 05:21:42;;;;;;;3.40;1.05;;;;;;;13.89;100.00;100357.81;5014701;28;20091;-82
2023/08/15 05:24:07;;;;;;;2.80;0.60;;;;;;;13.94;100.00;100372.41;5027796;28;20046;-83
2023/08/15 05:26:35;;;;;;;2.33;0.60;;;;;;;13.94;100.00;100367.94;5020658;28;20034;-83
2023/08/15 05:29:02;;;;;;;4.57;0.50;;;;;;;13.96;100.00;100373.09;5029936;28;20108;-82
2023/08/15 05:31:28;;;;;;;3.58;0.80;;;;;;;14.00;100.00;100383.22;5029012;28;20040;-82
2023/08/15 05:33:54;;;;;;;1.92;0.68;;;;;;;14.01;100.00;100381.41;5014188;28;20057;-82
2023/08/15 05:36:20;;;;;;;2.08;0.70;;;;;;;14.06;100.00;100375.56;5011688;28;20068;-83
2023/08/15 05:38:47;;;;;;;5.07;0.80;;;;;;;14.06;100.00;100388.88;5026319;28;20047;-82
2023/08/15 05:41:13;;;;;;;2.42;0.60;;;;;;;14.06;100.00;100388.88;5022974;28;20057;-82
2023/08/15 05:43:39;;;;;;;3.58;0.85;;;;;;;14.08;100.00;100394.84;5002685;28;20087;-82
2023/08/15 05:46:04;;;;;;;5.30;0.90;;;;;;;14.07;100.00;100391.34;5029595;28;20495;-82
2023/08/15 05:48:30;;;;;;;2.90;0.63;;;;;;;14.09;100.00;100396.50;5013732;28;20048;-82
2023/08/15 05:50:56;;;;;;;3.67;0.93;;;;;;;14.08;100.00;100394.84;5020519;28;20446;-82
2023/08/15 05:53:22;;;;;;;4.53;0.73;;;;;;;14.09;100.00;100401.81;5015217;28;20030;-82
2023/08/15 05:55:48;;;;;;;3.47;0.65;;;;;;;14.09;100.00;100397.34;5009146;28;20038;-82
2023/08/15 05:58:14;;;;;;;5.40;1.10;;;;;;;14.14;100.00;100400.28;5028395;28;20038;-82
2023/08/15 06:00:40;;;;;;;3.38;0.88;;;;;;;14.20;100.00;100404.13;4996361;28;20063;-83
2023/08/15 06:03:06;;;;;;;2.03;0.70;;;;;;;14.22;100.00;100398.63;4990996;28;20431;-82
2023/08/15 06:05:32;;;;;;;4.60;0.80;;;;;;;14.22;100.00;100409.28;5020828;28;20038;-82
2023/08/15 06:07:59;;;;;;;1.10;0.60;;;;;;;14.25;100.00;100412.41;4986438;28;20092;-82
2023/08/15 06:10:25;;;;;;;4.82;1.02;;;;;;;14.26;100.00;100413.25;5004471;28;20472;-82
2023/08/15 06:12:50;;;;;;;1.40;0.73;;;;;;;14.26;100.00;100416.75;5024304;28;20034;-83
2023/08/15 06:15:16;;;;;;;4.53;0.80;;;;;;;14.29;100.00;100423.53;5023900;28;20073;-83
2023/08/15 06:17:42;;;;;;;3.88;0.70;;;;;;;14.32;100.00;100419.69;5010463;28;20083;-83
2023/08/15 06:20:10;;;;;;;2.63;0.60;;;;;;;14.36;100.00;100429.00;5013986;28;20041;-83
2023/08/15 06:22:36;;;;;;;3.50;0.70;;;;;;;14.37;100.00;100430.66;5028095;28;20108;-83
2023/08/15 06:25:02;;;;;;;2.65;0.75;;;;;;;14.39;100.00;100426.00;5012833;28;20065;-83
2023/08/15 06:27:28;;;;;;;1.65;0.55;;;;;;;14.42;100.00;100436.31;5017886;28;20037;-82
2023/08/15 06:29:53;;;;;;;4.53;0.70;;;;;;;14.46;100.00;100444.78;5043527;28;20037;-83
2023/08/15 06:32:27;;;;;;;2.50;0.75;;;;;;;14.47;100.00;100436.63;5025182;28;20067;-82
2023/08/15 06:34:52;;;;;;;7.05;1.00;;;;;;;14.40;100.00;100446.28;5006295;28;20439;-83
2023/08/15 06:37:18;;;;;;;2.92;0.80;;;;;;;14.42;100.00;100446.09;5022904;28;20026;-82
2023/08/15 06:39:44;;;;;;;6.03;1.05;;;;;;;14.44;100.00;100446.78;5018407;28;20037;-83
2023/08/15 06:42:13;;;;;;;4.28;0.60;;;;;;;14.46;100.00;100455.41;5024686;28;20519;-82
2023/08/15 06:44:42;;;;;;;2.15;0.60;;;;;;;14.54;100.00;100457.22;5030801;28;20029;-82
2023/08/15 06:47:08;;;;;;;5.32;0.90;;;;;;;14.56;100.00;100464.03;5009626;28;20037;-83
2023/08/15 06:49:34;;;;;;;4.70;0.93;;;;;;;14.57;100.00;100465.66;5024554;28;20384;-82
2023/08/15 06:52:00;;;;;;;3.10;0.70;;;;;;;14.61;100.00;100467.00;5008228;28;20034;-83
2023/08/15 06:54:25;;;;;;;6.93;1.15;;;;;;;14.66;100.00;100473.63;5011037;28;20033;-82
2023/08/15 06:56:51;;;;;;;1.92;0.50;;;;;;;14.75;100.00;100473.44;5024349;28;20050;-82
2023/08/15 06:59:17;;;;;;;1.75;0.60;;;;;;;14.80;100.00;100472.13;5024886;28;20028;-83
2023/08/15 07:01:43;;;;;;;3.72;1.02;;;;;;;14.86;100.00;100474.09;5018798;28;20021;-82
2023/08/15 07:04:09;;;;;;;6.03;0.98;;;;;;;14.93;100.00;100474.25;5007575;28;20506;-82
2023/08/15 07:06:35;;;;;;;5.35;0.50;;;;;;;14.97;100.00;100480.91;5014450;28;20038;-82
2023/08/15 07:09:00;;;;;;;2.67;0.50;;;;;;;15.00;100.00;100473.38;5018249;28;20072;-82
2023/08/15 07:11:27;;;;;;;3.63;0.50;;;;;;;15.03;100.00;100466.06;5019754;28;20053;-82
2023/08/15 07:13:52;;;;;;;3.05;0.82;;;;;;;15.05;100.00;100474.72;5019282;28;20057;-82
2023/08/15 07:16:18;;;;;;;2.33;0.60;;;;;;;15.09;100.00;100476.00;5026972;28;20068;-82
2023/08/15 07:18:44;;;;;;;1.35;0.55;;;;;;;15.13;100.00;100480.81;5022505;28;20467;-82
2023/08/15 07:21:10;;;;;;;2.60;0.52;;;;;;;15.18;100.00;100477.63;5025193;28;20479;-83
2023/08/15 07:23:35;;;;;;;4.28;0.80;;;;;;;15.20;100.00;100483.63;5016030;28;20352;-82
2023/08/15 07:26:01;;;;;;;4.70;0.50;;;;;;;15.22;100.00;100491.44;4994059;28;20495;-82
2023/08/15 07:28:28;;;;;;;2.22;0.65;;;;;;;15.24;100.00;100489.44;4999875;28;20400;-83
2023/08/15 07:30:55;;;;;;;4.05;0.80;;;;;;;15.21;100.00;100490.59;5025584;28;20456;-82
2023/08/15 07:33:21;;;;;;;5.43;0.80;;;;;;;15.22;100.00;100500.25;4967435;28;20076;-82
2023/08/15 07:35:47;;;;;;;3.20;0.40;;;;;;;15.25;100.00;100499.06;5027968;28;20041;-82
2023/08/15 07:38:14;;;;;;;2.88;0.85;;;;;;;15.27;100.00;100497.06;5018237;28;20104;-82
2023/08/15 07:40:40;;;;;;;2.78;0.60;;;;;;;15.33;100.00;100503.53;4940222;28;20748;-82
2023/08/15 07:43:05;;;;;;;3.50;0.60;;;;;;;15.37;100.00;100495.00;5011798;28;21680;-82
2023/08/15 07:45:31;;;;;;;2.30;0.60;;;;;;;15.35;100.00;100496.19;5013362;28;20040;-82
2023/08/15 07:47:58;;;;;;;2.17;0.57;;;;;;;15.36;100.00;100501.34;5009514;28;20038;-82
2023/08/15 07:50:27;;;;;;;3.20;0.60;;;;;;;15.35;100.00;100496.19;5009904;28;20518;-82
2023/08/15 07:52:54;;;;;;;2.92;0.75;;;;;;;15.33;100.00;100506.19;5028666;28;20103;-82
2023/08/15 07:55:21;;;;;;;3.42;0.55;;;;;;;15.34;100.00;100506.00;5022881;28;20454;-83
2023/08/15 07:57:47;;;;;;;4.43;1.33;;;;;;;15.33;100.00;100511.50;5026786;28;20041;-82
2023/08/15 08:00:14;;;;;;;2.83;0.50;;;;;;;15.34;100.00;100511.34;5024782;28;20042;-82
2023/08/15 08:02:46;;;;;;;3.63;0.93;;;;;;;15.35;100.00;100507.66;5023346;28;20043;-82
2023/08/15 08:05:13;;;;;;;1.30;0.50;;;;;;;15.31;100.00;100521.50;5025905;28;20120;-82
2023/08/15 08:07:41;;;;;;;3.15;0.52;;;;;;;15.32;100.00;100521.31;5015510;28;20129;-81
2023/08/15 08:10:07;;;;;;;4.13;0.50;;;;;;;15.29;100.00;100519.00;5009480;28;20083;-82
2023/08/15 08:12:34;;;;;;;1.85;0.50;;;;;;;15.33;100.00;100525.66;5010864;28;20049;-82
2023/08/15 08:15:00;;;;;;;2.75;0.40;;;;;;;15.32;100.00;100525.84;5013001;28;20037;-82
2023/08/15 08:17:26;;;;;;;2.75;0.40;;;;;;;15.34;100.00;100532.66;5008436;28;20502;-82
2023/08/15 08:19:52;;;;;;;3.05;0.75;;;;;;;15.41;100.00;100534.59;4995894;28;20045;-82
2023/08/15 08:22:18;;;;;;;1.30;0.57;;;;;;;15.39;100.00;100537.44;5022387;28;20111;-82
2023/08/15 08:24:45;;;;;;;1.98;0.43;;;;;;;15.38;100.00;100538.47;5020654;28;20108;-83
2023/08/15 08:27:11;;;;;;;7.93;0.77;;;;;;;15.43;100.00;100537.94;5027587;28;20044;-82
2023/08/15 08:29:36;;;;;;;2.63;0.65;;;;;;;15.45;100.00;100542.06;5023803;28;20041;-82
2023/08/15 08:32:02;;;;;;;2.63;0.30;;;;;;;15.48;100.00;100549.72;5025949;28;20091;-82
2023/08/15 08:34:28;;;;;;;3.80;0.50;;;;;;;15.53;100.00;100559.03;5023782;28;20083;-82
2023/08/15 08:36:54;;;;;;;1.95;0.50;;;;;;;15.57;100.00;100561.19;5007215;28;20411;-82
2023/08/15 08:39:19;;;;;;;6.40;0.60;;;;;;;15.54;100.00;100561.53;5021182;28;20466;-82
2023/08/15 08:41:45;;;;;;;5.55;0.60;;;;;;;15.52;100.00;100560.03;5025183;28;20435;-82
2023/08/15 08:44:12;;;;;;;9.68;0.40;;;;;;;15.54;100.00;100563.34;5018748;28;20061;-82
2023/08/15 08:46:39;;;;;;;2.88;0.55;;;;;;;15.60;100.00;100571.47;5011108;28;20454;-82
2023/08/15 08:49:06;;;;;;;9.65;0.52;;;;;;;15.60;100.00;100568.81;5018624;28;20118;-82
2023/08/15 08:51:32;;;;;;;1.75;0.43;;;;;;;15.60;100.00;100570.63;5027536;28;20091;-82
2023/08/15 08:53:58;;;;;;;3.67;0.30;;;;;;;15.65;100.00;100572.78;5010870;28;20035;-82
2023/08/15 08:56:27;;;;;;;1.98;0.28;;;;;;;15.67;100.00;100576.91;5023329;28;20033;-81
2023/08/15 08:59:05;;;;;;;3.25;0.43;;;;;;;15.69;100.00;100566.94;5042050;28;20041;-83
2023/08/15 09:01:31;;;;;;;1.10;0.22;;;;;;;15.70;100.00;100573.91;5028351;28;20029;-81
2023/08/15 09:03:57;;;;;;;3.03;0.30;;;;;;;15.71;100.00;100572.91;5009545;28;20038;-82
2023/08/15 09:06:27;;;;;;;2.17;0.45;;;;;;;15.81;100.00;100575.38;5026253;28;20044;-82
2023/08/15 09:08:53;;;;;;;4.25;0.52;;;;;;;15.83;100.00;100573.34;5029472;28;20399;-82
2023/08/15 09:11:22;;;;;;;2.90;0.50;;;;;;;15.85;100.00;100581.16;5000129;28;20038;-82
2023/08/15 09:13:49;;;;;;;4.25;0.28;;;;;;;15.84;100.00;100590.16;5026052;28;20190;-82
2023/08/15 09:16:18;;;;;;;1.48;0.40;;;;;;;15.82;100.00;100587.69;5022583;28;20022;-82
2023/08/15 09:18:46;;;;;;;3.22;0.40;;;;;;;15.92;100.00;100574.13;5012541;28;20102;-82
2023/08/15 09:21:13;;;;;;;2.72;0.63;;;;;;;16.02;100.00;100573.94;5030262;28;20055;-82
2023/08/15 09:23:44;;;;;;;1.52;0.50;;;;;;;16.13;100.00;100588.69;5010147;28;20511;-82
2023/08/15 09:26:12;;;;;;;1.85;0.75;;;;;;;16.18;100.00;100580.16;5012129;28;20045;-82
2023/08/15 09:28:40;;;;;;;1.40;0.30;;;;;;;16.30;100.00;100592.06;5026591;28;20147;-82
2023/08/15 09:31:08;;;;;;;2.25;0.40;;;;;;;16.39;100.00;100592.81;5029363;28;20483;-82
2023/08/15 09:33:38;;;;;;;2.17;0.35;;;;;;;16.52;100.00;100583.34;5029522;28;20041;-82
2023/08/15 09:36:08;;;;;;;1.77;0.43;;;;;;;16.51;100.00;100589.72;5025504;28;20558;-82
2023/08/15 09:38:38;;;;;;;1.98;0.35;;;;;;;16.44;100.00;100597.59;5013024;28;20052;-82
2023/08/15 09:41:05;;;;;;;4.97;0.40;;;;;;;16.41;100.00;100597.97;5022421;28;20057;-83
2023/08/15 09:43:32;;;;;;;0.77;0.30;;;;;;;16.56;100.00;100596.16;5019052;28;20129;-83
2023/08/15 09:46:02;;;;;;;1.42;0.40;;;;;;;16.72;100.00;100594.38;5009542;28;20080;-82
2023/08/15 09:48:28;;;;;;;1.17;0.50;;;;;;;16.70;100.00;100596.38;5033977;28;20546;-82
2023/08/15 09:50:55;;;;;;;1.63;0.40;;;;;;;16.56;100.00;100608.69;5020240;28;20373;-81
2023/08/15 09:53:24;;;;;;;3.97;0.52;;;;;;;16.42;100.00;100616.44;5002473;28;20049;-80
2023/08/15 09:55:51;;;;;;;4.22;0.50;;;;;;;16.17;100.00;100618.47;5025014;28;20077;-81
2023/08/15 09:58:19;;;;;;;4.20;0.40;;;;;;;15.97;100.00;100629.59;5026101;28;20388;-81
2023/08/15 10:00:50;;;;;;;2.65;0.50;;;;;;;15.92;100.00;100621.28;5009570;28;20066;-81
2023/08/15 10:03:35;;;;;;;2.42;0.50;;;;;;;15.95;100.00;100629.75;4966858;28;20033;-81
2023/08/15 10:06:02;;;;;;;0.75;0.35;;;;;;;15.96;100.00;100623.41;5009148;28;20395;-81
2023/08/15 10:08:28;;;;;;;1.88;0.30;;;;;;;16.10;100.00;100627.19;5036103;28;20033;-81
2023/08/15 10:10:57;;;;;;;1.38;0.38;;;;;;;16.22;100.00;100626.78;5027383;28;20033;-81
2023/08/15 10:13:44;;;;;;;2.45;0.50;;;;;;;16.26;100.00;100620.06;5023989;28;20049;-81
2023/08/15 10:16:12;;;;;;;2.58;0.47;;;;;;;16.32;100.00;100613.22;5027361;28;20502;-81
2023/08/15 10:18:38;;;;;;;3.80;0.55;;;;;;;16.47;100.00;100622.09;5027713;28;20140;-81
2023/08/15 10:21:04;;;;;;;1.10;0.40;;;;;;;16.48;100.00;100621.06;5001782;28;20036;-81
2023/08/15 10:23:32;;;;;;;2.33;0.43;;;;;;;16.53;100.00;100620.53;4997178;28;20488;-81
2023/08/15 10:26:00;;;;;;;2.53;0.50;;;;;;;16.65;100.00;100620.09;5002963;28;20033;-81
2023/08/15 10:28:28;;;;;;;2.72;0.50;;;;;;;16.73;100.00;100610.22;4991159;28;20037;-82
2023/08/15 10:30:54;;;;;;;8.30;0.90;;;;;;;16.79;100.00;100613.97;5014590;28;20099;-79
2023/08/15 10:33:26;;;;;;;2.00;0.47;;;;;;;16.85;100.00;100612.44;5010884;28;20407;-80
2023/08/15 10:35:55;;;;;;;3.25;0.55;;;;;;;16.86;100.00;100614.09;5027072;28;20142;-82
2023/08/15 10:38:22;;;;;;;2.13;0.50;;;;;;;16.96;100.00;100625.31;5006894;28;20117;-82
2023/08/15 10:40:51;;;;;;;2.20;0.55;;;;;;;17.04;100.00;100615.59;5006393;28;20341;-81
2023/08/15 10:43:16;;;;;;;1.52;0.30;;;;;;;17.01;100.00;100622.09;5007166;28;20037;-82
2023/08/15 10:45:53;;;;;;;2.25;0.60;;;;;;;17.07;100.00;100620.56;5010501;28;20034;-80
2023/08/15 10:48:37;;;;;;;3.17;0.60;;;;;;;17.14;100.00;100615.34;4999722;28;20041;-80
2023/08/15 10:51:04;;;;;;;2.28;0.68;;;;;;;17.21;100.00;100619.78;5024277;28;20041;-81
2023/08/15 10:53:30;;;;;;;1.38;0.50;;;;;;;17.37;100.00;100617.91;5008572;28;20034;-81
2023/08/15 10:55:58;;;;;;;2.75;0.90;;;;;;;17.36;100.00;100622.41;5004114;28;20488;-82
2023/08/15 10:58:25;;;;;;;3.25;0.50;;;;;;;17.40;100.00;100622.88;5014992;28;20507;-82
2023/08/15 11:00:51;;;;;;;1.00;0.50;;;;;;;17.42;100.00;100617.38;5026464;28;20032;-81
2023/08/15 11:03:17;;;;;;;0.85;0.30;;;;;;;17.40;100.00;100627.41;5012079;28;20029;-82
2023/08/15 11:05:43;;;;;;;3.70;0.57;;;;;;;17.41;100.00;100627.22;4985649;28;20409;-82
2023/08/15 11:08:14;;;;;;;3.33;1.00;;;;;;;17.44;100.00;100629.50;5022908;28;20042;-82
2023/08/15 11:10:50;;;;;;;4.78;0.50;;;;;;;17.45;100.00;100623.16;5001521;28;20045;-82
2023/08/15 11:13:17;;;;;;;3.17;0.60;;;;;;;17.44;100.00;100628.69;5010577;28;20041;-82
2023/08/15 11:15:46;;;;;;;3.60;0.63;;;;;;;17.59;100.00;100631.34;5027076;28;20033;-82
2023/08/15 11:18:23;;;;;;;4.28;0.80;;;;;;;17.62;100.00;100628.28;5023787;28;20052;-82